Time;durP1;ratioP1;P1;durP2;ratioP2;P2;SDS_P1;SDS_P2;PMS_P1;PMS_P2;Temp;Humidity;BMP_temperature;BMP_pressure;BME280_temperature;BME280_humidity;BME280_pressure;Samples;Min_cycle;Max_cycle;Signal;HPM_P1;HPM_P2
2023/06/06 00:00:21;;;;;;;;;2.00;2.00;;;;;18.09;50.25;98612.03;4935626;28;102470;-70
2023/06/06 00:02:49;;;;;;;;;2.33;2.00;;;;;17.98;52.41;98610.19;4934267;28;102172;-70
2023/06/06 00:05:29;;;;;;;;;2.67;2.67;;;;;17.97;50.43;98605.78;4936229;28;103734;-70
2023/06/06 00:08:13;;;;;;;;;3.00;3.00;;;;;17.87;50.17;98605.66;4934704;28;107958;-70
2023/06/06 00:11:08;;;;;;;;;3.33;3.00;;;;;17.91;51.26;98601.34;4938742;28;102159;-70
2023/06/06 00:13:51;;;;;;;;;3.00;3.00;;;;;17.89;50.23;98603.47;4935004;28;102180;-70
2023/06/06 00:16:32;;;;;;;;;2.00;2.00;;;;;17.89;52.19;98601.56;4933384;28;102044;-70
2023/06/06 00:19:00;;;;;;;;;4.67;4.00;;;;;17.81;50.08;98601.97;4937724;28;104112;-70
2023/06/06 00:21:35;;;;;;;;;2.00;2.00;;;;;17.81;51.29;98588.31;4937694;28;103295;-69
2023/06/06 00:24:03;;;;;;;;;3.00;3.00;;;;;17.83;50.98;98594.38;4934240;28;102216;-70
2023/06/06 00:26:30;;;;;;;;;2.00;2.00;;;;;17.85;50.39;98589.47;4940311;28;103137;-70
2023/06/06 00:28:57;;;;;;;;;2.00;2.00;;;;;17.71;51.07;98588.97;4938196;28;104152;-70
2023/06/06 00:31:24;;;;;;;;;5.33;4.00;;;;;17.62;50.34;98570.47;4938383;28;102224;-70
2023/06/06 00:33:51;;;;;;;;;2.67;2.00;;;;;17.82;51.45;98582.59;4936164;28;104104;-70
2023/06/06 00:36:18;;;;;;;;;2.67;2.00;;;;;17.82;52.43;98582.59;4938788;28;102154;-70
2023/06/06 00:38:47;;;;;;;;;1.33;1.33;;;;;17.75;51.24;98589.28;4934135;28;103997;-70
2023/06/06 00:41:14;;;;;;;;;2.00;2.00;;;;;17.75;53.22;98584.66;4931529;28;101862;-70
2023/06/06 00:43:41;;;;;;;;;1.00;1.00;;;;;17.75;50.89;98583.81;4937151;28;102960;-70
2023/06/06 00:46:08;;;;;;;;;1.00;1.00;;;;;17.75;52.53;98579.19;4937831;28;104078;-70
2023/06/06 00:48:35;;;;;;;;;1.00;1.00;;;;;17.68;51.24;98581.25;4938442;28;103822;-70
2023/06/06 00:51:02;;;;;;;;;3.33;2.00;;;;;17.69;50.82;98588.41;4936097;28;102812;-70
2023/06/06 00:53:29;;;;;;;;;1.33;1.33;;;;;17.71;52.43;98586.22;4938076;28;102492;-70
2023/06/06 00:55:57;;;;;;;;;1.00;1.00;;;;;17.75;54.52;98584.66;4939980;28;102430;-70
2023/06/06 00:58:27;;;;;;;;;1.00;0.00;;;;;17.72;52.16;98579.69;4935367;28;104091;-70
2023/06/06 01:00:54;;;;;;;;;1.00;1.00;;;;;17.66;52.63;98580.66;4937118;28;102070;-70
2023/06/06 01:03:24;;;;;;;;;1.00;1.00;;;;;17.63;53.32;98577.59;4927730;28;103749;-70
2023/06/06 01:05:59;;;;;;;;;2.00;1.00;;;;;17.59;51.23;98571.81;4937102;28;102125;-70
2023/06/06 01:08:42;;;;;;;;;0.00;0.00;;;;;17.65;53.14;98583.66;4939553;28;107936;-70
2023/06/06 01:11:50;;;;;;;;;1.00;1.00;;;;;17.52;53.60;98582.00;4936417;28;102073;-70
2023/06/06 01:14:56;;;;;;;;;2.00;1.00;;;;;17.50;54.64;98575.16;4930556;28;101853;-70
2023/06/06 01:17:51;;;;;;;;;0.33;0.33;;;;;17.46;52.88;98571.25;4935513;28;102032;-71
2023/06/06 01:20:30;;;;;;;;;1.00;1.00;;;;;17.49;53.90;98578.94;4928453;28;108346;-70
2023/06/06 01:22:59;;;;;;;;;1.67;1.00;;;;;17.34;56.12;98558.47;4933879;28;103539;-70
2023/06/06 01:25:26;;;;;;;;;0.67;0.67;;;;;17.36;53.63;98569.16;4933639;28;102328;-70
2023/06/06 01:27:55;;;;;;;;;1.00;1.00;;;;;17.33;53.15;98566.94;4937154;28;102370;-70
2023/06/06 01:30:25;;;;;;;;;1.33;0.67;;;;;17.44;54.43;98578.84;4935006;28;108823;-70
2023/06/06 01:33:07;;;;;;;;;0.00;0.00;;;;;17.42;52.90;98573.66;4934757;28;102389;-70
2023/06/06 01:36:00;;;;;;;;;1.00;1.00;;;;;17.44;52.16;98573.38;4935730;28;102161;-70
2023/06/06 01:38:32;;;;;;;;;1.00;1.00;;;;;17.47;52.38;98570.97;4924221;28;103872;-69
2023/06/06 01:41:02;;;;;;;;;1.00;1.00;;;;;17.40;52.01;98571.16;4938298;28;104054;-70
2023/06/06 01:43:32;;;;;;;;;1.00;1.00;;;;;17.42;52.55;98570.91;4934224;28;102103;-69
2023/06/06 01:46:00;;;;;;;;;1.00;1.00;;;;;17.47;52.98;98570.19;4939443;28;101859;-70
2023/06/06 01:48:28;;;;;;;;;1.00;0.00;;;;;17.43;52.01;98561.63;4938534;28;104027;-69
2023/06/06 01:50:55;;;;;;;;;1.33;1.00;;;;;17.39;53.02;98565.91;4938883;28;108563;-70
2023/06/06 01:53:22;;;;;;;;;0.33;0.33;;;;;17.41;54.08;98569.25;4937015;28;102089;-70
2023/06/06 01:55:50;;;;;;;;;3.00;2.00;;;;;17.41;52.36;98569.25;4938313;28;102232;-70
2023/06/06 01:58:18;;;;;;;;;2.67;2.67;;;;;17.28;52.73;98558.63;4938224;28;105284;-70
2023/06/06 02:00:45;;;;;;;;;3.00;3.00;;;;;17.35;53.06;98570.22;4936869;28;104267;-71
2023/06/06 02:03:13;;;;;;;;;1.00;1.00;;;;;17.40;52.94;98562.13;4936566;28;102734;-70
2023/06/06 02:05:40;;;;;;;;;1.67;1.67;;;;;17.40;52.29;98562.13;4939181;28;102139;-70
2023/06/06 02:08:07;;;;;;;;;0.67;0.00;;;;;17.42;52.84;98570.91;4937071;28;101905;-71
2023/06/06 02:10:36;;;;;;;;;1.00;1.00;;;;;17.43;53.12;98572.56;4937962;28;104447;-71
2023/06/06 02:13:03;;;;;;;;;2.33;1.00;;;;;17.40;52.70;98567.59;4938623;28;102134;-71
2023/06/06 02:15:30;;;;;;;;;0.00;0.00;;;;;17.42;53.08;98570.09;4936762;28;102149;-71
2023/06/06 02:17:57;;;;;;;;;1.00;0.00;;;;;17.38;54.77;98580.69;4942106;28;102159;-71
2023/06/06 02:20:27;;;;;;;;;0.00;0.00;;;;;17.38;54.16;98575.22;4936352;28;107858;-69
2023/06/06 02:22:55;;;;;;;;;0.00;0.00;;;;;17.34;54.21;98576.75;4940652;28;102837;-71
2023/06/06 02:25:23;;;;;;;;;0.00;0.00;;;;;17.36;55.65;98571.88;4938440;28;102154;-70
2023/06/06 02:27:53;;;;;;;;;0.00;0.00;;;;;17.34;55.50;98585.78;4939658;28;102129;-70
2023/06/06 02:30:22;;;;;;;;;0.00;0.00;;;;;17.30;54.79;98581.91;4939551;28;104054;-71
2023/06/06 02:32:50;;;;;;;;;0.00;0.00;;;;;17.27;55.19;98585.13;4938279;28;102501;-71
2023/06/06 02:35:21;;;;;;;;;1.00;1.00;;;;;17.16;55.80;98586.00;4937374;28;102655;-71
2023/06/06 02:37:48;;;;;;;;;2.00;2.00;;;;;16.95;55.21;98587.50;4937499;28;106480;-71
2023/06/06 02:40:15;;;;;;;;;2.00;2.00;;;;;16.87;56.57;98590.63;4933840;28;104094;-71
2023/06/06 02:42:42;;;;;;;;;2.00;2.00;;;;;16.88;59.34;98594.19;4931999;28;103168;-70
2023/06/06 02:45:10;;;;;;;;;1.00;1.00;;;;;16.92;59.83;98593.47;4934729;28;102216;-71
2023/06/06 02:47:38;;;;;;;;;1.00;1.00;;;;;16.98;59.63;98588.06;4937130;28;102396;-70
2023/06/06 02:50:06;;;;;;;;;3.25;3.00;;;;;16.84;56.70;98593.00;4935126;28;104120;-71
2023/06/06 02:52:33;;;;;;;;;3.00;2.00;;;;;16.78;56.41;98585.75;4934991;28;102313;-71
2023/06/06 02:55:00;;;;;;;;;2.00;1.75;;;;;16.79;56.43;98596.47;4938468;28;102321;-73
2023/06/06 02:57:27;;;;;;;;;2.00;2.00;;;;;16.82;56.04;98592.41;4938942;28;101917;-69
2023/06/06 02:59:55;;;;;;;;;2.75;2.75;;;;;16.72;56.88;98598.47;4942150;28;108487;-70
2023/06/06 03:02:22;;;;;;;;;2.25;2.25;;;;;16.75;60.31;98587.06;4936934;28;102126;-69
2023/06/06 03:04:49;;;;;;;;;4.75;4.75;;;;;16.22;58.57;98534.56;4936237;28;102483;-70
2023/06/06 03:07:16;;;;;;;;;4.75;4.75;;;;;16.54;60.93;98587.66;4938139;28;102145;-69
2023/06/06 03:09:43;;;;;;;;;3.50;3.25;;;;;16.56;60.52;98585.53;4937151;28;104035;-70
2023/06/06 03:12:11;;;;;;;;;2.75;2.75;;;;;16.60;60.76;98594.13;4936266;28;102527;-69
2023/06/06 03:14:38;;;;;;;;;3.00;3.00;;;;;16.60;61.09;98585.94;4937773;28;102454;-70
2023/06/06 03:17:21;;;;;;;;;3.00;3.00;;;;;16.56;61.15;98599.19;4938455;28;102486;-70
2023/06/06 03:19:48;;;;;;;;;3.75;3.00;;;;;16.45;62.20;98586.38;4934482;28;104010;-70
2023/06/06 03:22:18;;;;;;;;;3.00;3.00;;;;;16.47;60.81;98587.81;4936735;28;102225;-70
2023/06/06 03:24:46;;;;;;;;;3.50;3.00;;;;;16.47;61.64;98589.72;4933573;28;102690;-70
2023/06/06 03:27:14;;;;;;;;;2.00;2.00;;;;;16.51;61.98;98597.19;4935622;28;102160;-69
2023/06/06 03:29:41;;;;;;;;;2.00;2.00;;;;;16.55;61.37;98597.53;4935075;28;104061;-70
2023/06/06 03:32:08;;;;;;;;;3.50;3.00;;;;;16.57;60.84;98598.09;4934672;28;101823;-70
2023/06/06 03:34:35;;;;;;;;;1.25;1.25;;;;;16.59;62.08;98596.00;4934551;28;102121;-71
2023/06/06 03:37:02;;;;;;;;;2.00;1.50;;;;;16.56;61.38;98599.19;4940988;28;102056;-70
2023/06/06 03:39:30;;;;;;;;;4.75;3.75;;;;;16.49;62.61;98596.56;4937923;28;103695;-69
2023/06/06 03:41:57;;;;;;;;;2.00;2.00;;;;;16.48;62.96;98594.06;4938275;28;101938;-70
2023/06/06 03:44:24;;;;;;;;;2.00;2.00;;;;;16.37;64.76;98589.47;4938058;28;101950;-71
2023/06/06 03:46:51;;;;;;;;;3.25;3.00;;;;;16.28;66.59;98594.47;4940906;28;102164;-71
2023/06/06 03:49:18;;;;;;;;;3.00;3.00;;;;;16.31;66.57;98590.41;4937668;28;104049;-70
2023/06/06 03:51:46;;;;;;;;;2.25;1.00;;;;;16.40;63.69;98586.25;4936193;28;102028;-70
2023/06/06 03:54:13;;;;;;;;;1.00;1.00;;;;;16.52;65.40;98587.09;4932932;28;102341;-70
2023/06/06 03:56:42;;;;;;;;;2.00;1.00;;;;;16.52;63.80;98584.38;4936541;28;102230;-71
2023/06/06 03:59:12;;;;;;;;;3.50;3.00;;;;;16.50;63.20;98592.78;4933911;28;104027;-70
2023/06/06 04:01:40;;;;;;;;;2.33;1.67;;;;;16.61;63.05;98588.44;4934404;28;102226;-71
2023/06/06 04:04:08;;;;;;;;;2.00;2.00;;;;;16.66;64.19;98587.69;4937175;28;102539;-70
2023/06/06 04:06:37;;;;;;;;;0.33;0.33;;;;;16.69;63.36;98590.78;4940544;28;102509;-71
2023/06/06 04:09:07;;;;;;;;;2.00;1.00;;;;;16.72;64.17;98592.19;4940378;28;104163;-70
2023/06/06 04:11:35;;;;;;;;;2.00;2.00;;;;;16.63;64.60;98589.00;4938432;28;102209;-70
2023/06/06 04:14:03;;;;;;;;;0.33;0.33;;;;;16.68;65.88;98593.75;4939843;28;101816;-70
2023/06/06 04:16:30;;;;;;;;;3.00;1.00;;;;;16.75;67.15;98591.72;4941081;28;103907;-70
2023/06/06 04:18:57;;;;;;;;;0.00;0.00;;;;;16.79;63.82;98587.44;4942765;28;108768;-71
2023/06/06 04:21:24;;;;;;;;;1.00;1.00;;;;;16.86;63.41;98586.22;4940458;28;102059;-70
2023/06/06 04:23:53;;;;;;;;;1.67;1.67;;;;;16.85;63.79;98591.91;4940366;28;101811;-70
2023/06/06 04:26:25;;;;;;;;;1.00;1.00;;;;;16.93;64.87;98589.63;4942470;28;103090;-70
2023/06/06 04:28:53;;;;;;;;;2.00;1.00;;;;;16.89;64.89;98576.69;4939887;28;104264;-71
2023/06/06 04:31:23;;;;;;;;;3.25;3.00;;;;;16.92;63.40;98584.44;4941237;28;104221;-71
2023/06/06 04:33:53;;;;;;;;;2.75;2.00;;;;;17.02;63.71;98565.50;4939548;28;102269;-70
2023/06/06 04:36:26;;;;;;;;;2.00;2.00;;;;;17.03;62.52;98567.16;4940733;28;102244;-70
2023/06/06 04:39:00;;;;;;;;;3.00;3.00;;;;;17.09;63.02;98566.19;4942817;28;104016;-70
2023/06/06 04:41:30;;;;;;;;;4.00;3.00;;;;;17.15;61.69;98567.13;4940577;28;101820;-70
2023/06/06 04:44:20;;;;;;;;;2.00;2.00;;;;;17.27;62.35;98570.63;4936058;28;102231;-71
2023/06/06 04:46:48;;;;;;;;;2.00;2.00;;;;;17.31;64.13;98569.91;4940504;28;101860;-70
2023/06/06 04:49:15;;;;;;;;;1.00;1.00;;;;;17.37;62.82;98573.56;4939441;28;104087;-70
2023/06/06 04:51:44;;;;;;;;;1.67;1.00;;;;;17.30;63.02;98570.13;4941047;28;102054;-70
2023/06/06 04:54:11;;;;;;;;;2.00;2.00;;;;;17.34;62.43;98574.03;4937600;28;101686;-69
2023/06/06 04:56:40;;;;;;;;;3.00;3.00;;;;;17.30;60.93;98570.13;4939270;28;102039;-70
2023/06/06 04:59:07;;;;;;;;;3.00;3.00;;;;;17.22;61.66;98574.09;4939103;28;103951;-70
2023/06/06 05:01:36;;;;;;;;;3.00;3.00;;;;;17.18;62.09;98559.25;4940689;28;102076;-70
2023/06/06 05:04:04;;;;;;;;;2.00;2.00;;;;;17.33;63.19;98565.03;4937426;28;102192;-70
2023/06/06 05:06:33;;;;;;;;;2.00;2.00;;;;;17.47;61.45;98568.25;4940180;28;102438;-70
2023/06/06 05:09:04;;;;;;;;;1.00;1.00;;;;;17.57;61.19;98573.06;4935902;28;104099;-70
2023/06/06 05:11:32;;;;;;;;;3.00;2.00;;;;;17.59;61.26;98570.97;4943799;28;102367;-70
2023/06/06 05:13:59;;;;;;;;;5.25;3.25;;;;;17.55;61.03;98570.59;4941272;28;102072;-70
2023/06/06 05:16:26;;;;;;;;;6.25;5.00;;;;;17.51;60.85;98574.06;4938149;28;102461;-71
2023/06/06 05:18:54;;;;;;;;;4.75;3.75;;;;;17.57;59.01;98565.72;4938568;28;103915;-70
2023/06/06 05:21:21;;;;;;;;;3.50;3.50;;;;;17.88;60.41;98561.59;4939384;28;102507;-71
2023/06/06 05:23:48;;;;;;;;;4.00;4.00;;;;;17.88;59.46;98563.53;4938546;28;102127;-71
2023/06/06 05:26:15;;;;;;;;;6.50;6.00;;;;;17.62;60.40;98570.47;4937029;28;101937;-71
2023/06/06 05:28:42;;;;;;;;;5.00;5.00;;;;;17.63;58.86;98563.94;4937766;28;103734;-73
2023/06/06 05:31:09;;;;;;;;;4.00;4.00;;;;;17.80;59.08;98562.84;4938494;28;102244;-72
2023/06/06 05:33:42;;;;;;;;;4.00;4.00;;;;;17.83;57.77;98562.34;4938977;28;102035;-71
2023/06/06 05:36:10;;;;;;;;;4.75;4.75;;;;;18.03;57.80;98561.84;4940187;28;102338;-71
2023/06/06 05:38:37;;;;;;;;;3.67;3.67;;;;;18.12;58.04;98557.63;4936689;28;104916;-71
2023/06/06 05:41:04;;;;;;;;;3.00;3.00;;;;;18.28;58.85;98561.44;4938807;28;102807;-71
2023/06/06 05:43:33;;;;;;;;;4.00;4.00;;;;;18.27;59.69;98566.06;4931594;28;102145;-69
2023/06/06 05:46:01;;;;;;;;;3.67;3.67;;;;;18.43;59.45;98572.56;4936721;28;102071;-70
2023/06/06 05:48:29;;;;;;;;;4.00;4.00;;;;;18.15;58.01;98564.50;4934872;28;108893;-71
2023/06/06 05:50:57;;;;;;;;;3.00;2.00;;;;;18.44;58.26;98567.94;4936747;28;102354;-72
2023/06/06 05:53:24;;;;;;;;;5.33;5.00;;;;;18.29;57.47;98572.09;4938753;28;102264;-71
2023/06/06 05:55:51;;;;;;;;;7.50;6.75;;;;;18.42;57.58;98561.88;4938922;28;102409;-72
2023/06/06 05:58:18;;;;;;;;;3.00;3.00;;;;;18.57;57.53;98576.66;4937658;28;104280;-72
2023/06/06 06:00:46;;;;;;;;;2.00;2.00;;;;;18.63;57.47;98583.88;4937887;28;102036;-73
2023/06/06 06:03:14;;;;;;;;;4.00;4.00;;;;;18.65;56.36;98565.25;4937826;28;102069;-71
2023/06/06 06:05:42;;;;;;;;;4.00;4.00;;;;;18.51;57.44;98585.00;4937578;28;102010;-72
2023/06/06 06:08:09;;;;;;;;;6.33;5.33;;;;;18.37;56.03;98572.78;4937648;28;104085;-72
2023/06/06 06:10:38;;;;;;;;;5.00;5.00;;;;;18.67;58.44;98574.06;4937540;28;102376;-72
2023/06/06 06:13:05;;;;;;;;;5.67;5.00;;;;;18.91;55.58;98569.13;4937535;28;103083;-71
2023/06/06 06:15:34;;;;;;;;;6.00;5.33;;;;;19.12;55.16;98576.53;4939462;28;102452;-71
2023/06/06 06:18:02;;;;;;;;;3.00;3.00;;;;;19.42;55.89;98567.78;4937433;28;103968;-71
2023/06/06 06:20:30;;;;;;;;;2.33;2.33;;;;;19.57;55.45;98578.13;4939421;28;102908;-71
2023/06/06 06:22:57;;;;;;;;;2.00;1.33;;;;;19.78;55.25;98569.00;4937121;28;102412;-71
2023/06/06 06:25:24;;;;;;;;;2.00;2.00;;;;;19.55;52.06;98580.28;4939022;28;101982;-72
2023/06/06 06:27:51;;;;;;;;;5.33;5.00;;;;;19.26;54.05;98574.22;4936617;28;103987;-71
2023/06/06 06:30:18;;;;;;;;;4.67;4.67;;;;;19.28;56.58;98579.44;4938455;28;102174;-71
2023/06/06 06:32:46;;;;;;;;;5.33;5.33;;;;;19.32;56.30;98575.91;4938101;28;108031;-71
2023/06/06 06:35:13;;;;;;;;;6.00;6.00;;;;;19.23;54.18;98571.97;4939413;28;102011;-71
2023/06/06 06:37:40;;;;;;;;;4.00;4.00;;;;;19.46;55.90;98568.97;4936342;28;104023;-71
2023/06/06 06:40:09;;;;;;;;;6.00;5.67;;;;;19.78;57.09;98573.66;4936812;28;101838;-71
2023/06/06 06:42:41;;;;;;;;;4.67;4.67;;;;;20.08;53.24;98570.34;4937512;28;102251;-71
2023/06/06 06:45:12;;;;;;;;;3.67;3.67;;;;;20.21;53.94;98578.97;4938345;28;102679;-71
2023/06/06 06:47:40;;;;;;;;;6.00;4.33;;;;;20.27;53.65;98566.91;4936423;28;104027;-71
2023/06/06 06:50:08;;;;;;;;;5.00;5.00;;;;;20.07;52.78;98571.44;4933735;28;102076;-72
2023/06/06 06:52:35;;;;;;;;;6.00;5.67;;;;;20.08;51.24;98571.19;4934528;28;102300;-70
2023/06/06 06:55:07;;;;;;;;;5.00;5.00;;;;;20.02;52.08;98563.97;4929906;28;102142;-70
2023/06/06 06:57:36;;;;;;;;;4.00;3.67;;;;;20.34;53.27;98569.47;4937608;28;104008;-71
2023/06/06 07:00:15;;;;;;;;;6.00;6.00;;;;;19.87;54.62;98558.34;4935240;28;102452;-71
2023/06/06 07:02:46;;;;;;;;;9.33;9.00;;;;;19.86;54.62;98560.28;4933720;28;102157;-70
2023/06/06 07:05:17;;;;;;;;;7.33;7.00;;;;;20.31;52.61;98546.09;4936208;28;102510;-71
2023/06/06 07:07:50;;;;;;;;;7.67;6.67;;;;;20.55;54.08;98559.41;4934396;28;104066;-71
2023/06/06 07:10:17;;;;;;;;;6.00;5.00;;;;;20.64;54.48;98561.38;4936403;28;102016;-70
2023/06/06 07:12:50;;;;;;;;;6.67;6.67;;;;;20.51;52.32;98561.88;4937073;28;102019;-71
2023/06/06 07:15:18;;;;;;;;;6.00;6.00;;;;;20.61;53.27;98555.59;4937491;28;102313;-71
2023/06/06 07:17:51;;;;;;;;;7.00;5.33;;;;;20.99;51.74;98563.47;4935410;28;104038;-70
2023/06/06 07:20:23;;;;;;;;;6.67;6.00;;;;;20.75;52.63;98565.03;4936893;28;101755;-71
2023/06/06 07:22:56;;;;;;;;;7.00;6.67;;;;;20.88;50.10;98561.78;4936402;28;102229;-71
2023/06/06 07:25:23;;;;;;;;;6.33;6.00;;;;;21.03;52.44;98561.03;4938520;28;102184;-71
2023/06/06 07:27:50;;;;;;;;;4.00;4.00;;;;;21.44;53.96;98561.97;4935388;28;104029;-72
2023/06/06 07:30:17;;;;;;;;;5.00;5.00;;;;;21.24;52.18;98549.84;4936694;28;102053;-72
2023/06/06 07:32:46;;;;;;;;;5.33;5.33;;;;;21.85;52.01;98560.09;4934216;28;101848;-72
2023/06/06 07:35:20;;;;;;;;;6.00;5.00;;;;;21.81;49.73;98538.63;4937401;28;102192;-72
2023/06/06 07:37:48;;;;;;;;;8.00;7.67;;;;;;;;4936288;28;104212;-72
2023/06/06 07:40:16;;;;;;;;;13.00;10.33;;;;;21.39;50.34;98557.28;4938893;28;102201;-71
2023/06/06 07:42:44;;;;;;;;;7.67;7.00;;;;;21.45;52.08;98550.72;4939385;28;102332;-71
2023/06/06 07:45:11;;;;;;;;;9.00;9.00;;;;;21.39;50.64;98548.22;4940513;28;102260;-71
2023/06/06 07:47:40;;;;;;;;;8.00;7.00;;;;;21.24;50.38;98546.28;4940072;28;104009;-71
2023/06/06 07:50:08;;;;;;;;;5.33;5.33;;;;;21.56;51.65;98541.38;4939962;28;101906;-71
2023/06/06 07:52:36;;;;;;;;;10.00;9.00;;;;;21.28;51.63;98533.63;4939866;28;102327;-72
2023/06/06 07:55:05;;;;;;;;;6.00;6.00;;;;;21.67;52.75;98543.03;4941176;28;102279;-71
2023/06/06 07:57:33;;;;;;;;;8.00;6.00;;;;;21.88;51.08;98537.53;4937402;28;104684;-71
2023/06/06 08:00:07;;;;;;;;;3.33;3.33;;;;;22.24;48.71;98537.25;4940902;28;102238;-72
2023/06/06 08:02:40;;;;;;;;;2.33;2.33;;;;;22.57;49.58;98546.00;4938155;28;103803;-71
2023/06/06 08:05:08;;;;;;;;;3.00;3.00;;;;;22.76;48.32;98543.50;4941950;28;101978;-72
2023/06/06 08:07:38;;;;;;;;;3.00;2.33;;;;;22.89;49.80;98543.72;4935325;28;104033;-71
2023/06/06 08:10:06;;;;;;;;;2.00;2.00;;;;;22.92;47.34;98543.13;4939396;28;102243;-71
2023/06/06 08:12:33;;;;;;;;;3.00;2.00;;;;;23.11;49.36;98535.88;4939339;28;101930;-71
2023/06/06 08:15:01;;;;;;;;;4.00;3.00;;;;;23.35;48.39;98536.03;4937811;28;102296;-72
2023/06/06 08:17:28;;;;;;;;;1.00;1.00;;;;;23.38;47.87;98534.63;4940418;28;108828;-72
2023/06/06 08:19:55;;;;;;;;;3.00;2.00;;;;;23.43;47.70;98521.63;4939423;28;102010;-72
2023/06/06 08:22:24;;;;;;;;;2.00;2.00;;;;;23.47;46.89;98525.50;4939234;28;102704;-71
2023/06/06 08:24:51;;;;;;;;;4.00;3.00;;;;;23.40;46.56;98526.91;4940597;28;102285;-71
2023/06/06 08:27:18;;;;;;;;;3.33;3.00;;;;;23.32;48.58;98530.25;4939518;28;103966;-72
2023/06/06 08:29:45;;;;;;;;;3.00;3.00;;;;;23.27;49.08;98522.84;4939614;28;102120;-72
2023/06/06 08:32:12;;;;;;;;;4.00;3.00;;;;;23.31;47.87;98520.34;4932664;28;102265;-71
2023/06/06 08:34:39;;;;;;;;;3.00;3.00;;;;;23.39;46.72;98520.53;4936681;28;101975;-71
2023/06/06 08:37:06;;;;;;;;;3.00;2.33;;;;;23.55;48.99;98518.53;4937910;28;103949;-71
2023/06/06 08:39:33;;;;;;;;;2.00;2.00;;;;;23.69;47.06;98514.00;4938793;28;102062;-72
2023/06/06 08:42:03;;;;;;;;;2.33;2.00;;;;;23.65;44.81;98479.81;4939367;28;101986;-72
2023/06/06 08:44:31;;;;;;;;;2.00;2.00;;;;;23.89;43.53;98519.38;4938808;28;102044;-71
2023/06/06 08:47:00;;;;;;;;;1.33;1.33;;;;;24.08;46.05;98515.91;4939474;28;111385;-71
2023/06/06 08:49:30;;;;;;;;;4.00;4.00;;;;;24.27;43.23;98514.09;4939230;28;102050;-71
2023/06/06 08:51:58;;;;;;;;;2.00;1.00;;;;;24.55;44.88;98504.91;4936590;28;102549;-71
2023/06/06 08:54:27;;;;;;;;;1.00;1.00;;;;;24.60;44.33;98513.16;4939204;28;102780;-72
2023/06/06 08:56:56;;;;;;;;;1.00;1.00;;;;;24.50;44.97;98510.50;4936306;28;103994;-72
2023/06/06 08:59:25;;;;;;;;;6.00;5.33;;;;;23.89;47.49;98513.84;4938683;28;103604;-71
2023/06/06 09:01:54;;;;;;;;;8.00;7.00;;;;;23.75;48.75;98515.63;4938688;28;102081;-71
2023/06/06 09:04:23;;;;;;;;;5.00;5.00;;;;;24.08;47.45;98504.84;4938320;28;102303;-72
2023/06/06 09:06:56;;;;;;;;;6.00;5.00;;;;;24.27;48.06;98500.28;4938986;28;104172;-72
2023/06/06 09:09:25;;;;;;;;;3.00;3.00;;;;;24.55;46.34;98504.91;4938478;28;101962;-71
2023/06/06 09:11:52;;;;;;;;;4.00;3.00;;;;;24.70;47.46;98512.22;4937677;28;102423;-72
2023/06/06 09:14:19;;;;;;;;;3.00;2.67;;;;;24.69;43.79;98514.16;4940333;28;102039;-72
2023/06/06 09:16:46;;;;;;;;;3.00;3.00;;;;;24.67;44.75;98512.81;4938325;28;103137;-72
2023/06/06 09:19:13;;;;;;;;;3.00;2.00;;;;;24.79;44.08;98505.75;4935738;28;102122;-72
2023/06/06 09:21:40;;;;;;;;;3.33;3.00;;;;;25.00;46.95;98509.09;4939297;28;101977;-72
2023/06/06 09:24:07;;;;;;;;;2.67;2.00;;;;;24.94;43.37;98506.69;4939625;28;102112;-71
2023/06/06 09:26:34;;;;;;;;;2.00;2.00;;;;;25.03;44.93;98507.69;4939034;28;103470;-72
2023/06/06 09:29:08;;;;;;;;;4.00;4.00;;;;;25.11;41.13;98498.72;4940851;28;102149;-71
2023/06/06 09:31:38;;;;;;;;;4.00;3.33;;;;;25.30;42.98;98499.56;4935947;28;102943;-71
2023/06/06 09:34:08;;;;;;;;;3.67;3.00;;;;;25.32;41.37;98508.38;4938956;28;102040;-72
2023/06/06 09:36:40;;;;;;;;;2.33;2.33;;;;;25.69;43.64;98505.63;4937604;28;104005;-72
2023/06/06 09:39:12;;;;;;;;;3.00;3.00;;;;;26.12;42.64;98506.25;4938848;28;102171;-71
2023/06/06 09:41:45;;;;;;;;;2.00;2.00;;;;;26.20;40.41;98501.97;4936134;28;101957;-72
2023/06/06 09:44:28;;;;;;;;;3.33;3.33;;;;;26.12;41.80;98505.44;4932114;28;102532;-72
2023/06/06 09:47:00;;;;;;;;;6.00;5.33;;;;;25.96;42.68;98498.53;4935529;28;104397;-71
2023/06/06 09:49:37;;;;;;;;;3.00;3.00;;;;;26.26;43.36;98509.09;4934509;28;102097;-71
2023/06/06 09:52:06;;;;;;;;;3.00;3.00;;;;;26.16;42.49;98507.28;4935943;28;101892;-72
2023/06/06 09:54:33;;;;;;;;;4.00;3.00;;;;;25.95;44.71;98505.19;4937300;28;102411;-72
2023/06/06 09:57:13;;;;;;;;;3.00;3.00;;;;;25.99;43.61;98514.53;4938217;28;109309;-72
2023/06/06 09:59:44;;;;;;;;;4.00;4.00;;;;;25.96;42.87;98495.75;4938082;28;102368;-72
2023/06/06 10:02:13;;;;;;;;;3.00;3.00;;;;;25.67;44.06;98507.84;4934243;28;102139;-71
2023/06/06 10:04:41;;;;;;;;;5.00;5.00;;;;;25.68;43.95;98511.44;4938922;28;102103;-71
2023/06/06 10:07:09;;;;;;;;;3.67;3.00;;;;;25.67;44.13;98510.63;4937604;28;104238;-71
2023/06/06 10:09:37;;;;;;;;;2.33;2.00;;;;;25.51;42.67;98511.13;4938333;28;102286;-71
2023/06/06 10:12:06;;;;;;;;;4.00;3.33;;;;;25.59;43.61;98514.06;4938060;28;101921;-72
2023/06/06 10:14:33;;;;;;;;;3.00;3.00;;;;;25.48;42.64;98506.22;4941066;28;102005;-72
2023/06/06 10:17:00;;;;;;;;;4.00;3.33;;;;;25.18;41.72;98507.47;4938297;28;108743;-72
2023/06/06 10:19:30;;;;;;;;;5.33;5.00;;;;;24.82;42.90;98505.13;4935287;28;102283;-72
2023/06/06 10:21:58;;;;;;;;;4.00;4.00;;;;;24.78;43.17;98503.25;4937304;28;101930;-72
2023/06/06 10:24:27;;;;;;;;;4.00;4.00;;;;;24.67;41.45;98513.63;4938141;28;102108;-72
2023/06/06 10:27:21;;;;;;;;;5.33;5.00;;;;;24.70;40.15;98513.03;4936964;28;104610;-72
2023/06/06 10:30:02;;;;;;;;;4.00;4.00;;;;;24.70;42.39;98501.97;4932692;28;102399;-71
2023/06/06 10:32:59;;;;;;;;;4.67;4.33;;;;;24.68;41.32;98512.50;4936539;28;102245;-72
2023/06/06 10:35:28;;;;;;;;;5.00;5.00;;;;;24.55;41.10;98502.16;4936578;28;102025;-72
2023/06/06 10:38:03;;;;;;;;;3.00;3.00;;;;;24.63;42.76;98509.00;4936578;28;104050;-72
2023/06/06 10:40:48;;;;;;;;;6.00;6.00;;;;;24.22;41.76;98508.59;4934990;28;102696;-71
2023/06/06 10:43:19;;;;;;;;;5.00;5.00;;;;;24.38;42.72;98510.91;4932361;28;103161;-72
2023/06/06 10:46:02;;;;;;;;;5.00;5.00;;;;;24.35;43.68;98503.22;4936235;28;102469;-71
2023/06/06 10:48:40;;;;;;;;;4.67;4.67;;;;;24.48;43.42;98515.50;4933108;28;105143;-73
2023/06/06 10:51:28;;;;;;;;;5.00;5.00;;;;;24.21;43.88;98516.06;4933003;28;101951;-72
2023/06/06 10:54:27;;;;;;;;;3.33;3.33;;;;;24.07;45.36;98494.91;4928137;28;102604;-72
2023/06/06 10:56:56;;;;;;;;;3.67;3.67;;;;;24.33;46.60;98521.19;4936666;28;102034;-71
2023/06/06 10:59:27;;;;;;;;;6.00;5.00;;;;;24.34;45.47;98520.09;4935475;28;104244;-73
2023/06/06 11:01:55;;;;;;;;;6.00;6.00;;;;;24.04;44.83;98523.13;4938058;28;102251;-73
2023/06/06 11:04:24;;;;;;;;;6.00;6.00;;;;;23.99;46.83;98530.34;4937175;28;102332;-71
2023/06/06 11:06:53;;;;;;;;;7.00;6.33;;;;;23.92;46.61;98532.59;4938429;28;102013;-72
2023/06/06 11:09:24;;;;;;;;;5.00;5.00;;;;;23.85;46.87;98531.28;4937215;28;104150;-72
2023/06/06 11:12:13;;;;;;;;;5.33;5.33;;;;;23.61;49.04;98528.44;4936466;28;102569;-72
2023/06/06 11:14:56;;;;;;;;;7.00;7.00;;;;;23.61;49.38;98535.88;4937620;28;102585;-72
2023/06/06 11:17:50;;;;;;;;;7.00;6.00;;;;;23.68;49.71;98534.47;4941653;28;102042;-72
2023/06/06 11:20:19;;;;;;;;;5.00;5.00;;;;;23.85;50.93;98545.09;4937968;28;109045;-72
2023/06/06 11:23:05;;;;;;;;;6.00;6.00;;;;;23.84;49.66;98538.75;4941369;28;102226;-72
2023/06/06 11:25:36;;;;;;;;;7.33;5.00;;;;;23.94;50.00;98551.66;4940796;28;101987;-71
2023/06/06 11:28:05;;;;;;;;;6.00;5.00;;;;;23.98;47.85;98553.53;4941944;28;102042;-72
2023/06/06 11:30:34;;;;;;;;;6.00;6.00;;;;;23.80;47.67;98536.84;4938172;28;108868;-73
2023/06/06 11:33:08;;;;;;;;;5.00;4.00;;;;;23.61;48.14;98550.50;4937642;28;102960;-72
2023/06/06 11:35:38;;;;;;;;;6.00;4.00;;;;;23.49;46.85;98558.34;4938765;28;101940;-72
2023/06/06 11:38:06;;;;;;;;;5.67;5.00;;;;;23.49;48.25;98553.63;4935796;28;102319;-72
2023/06/06 11:40:33;;;;;;;;;4.00;4.00;;;;;23.40;49.33;98566.34;4937541;28;109710;-73